createdAt,value
2022-08-02T00:00:25.526Z,22.97
2022-08-02T00:01:34.568Z,22.96
2022-08-02T00:02:38.332Z,22.97
2022-08-02T00:03:42.815Z,22.99
2022-08-02T00:04:47.781Z,23.00
2022-08-02T00:05:53.122Z,23.01
2022-08-02T00:06:59.547Z,23.05
2022-08-02T00:08:04.736Z,23.14
2022-08-02T00:09:07.923Z,23.12
2022-08-02T00:10:12.565Z,23.16
2022-08-02T00:11:19.278Z,23.20
2022-08-02T00:12:24.361Z,23.12
2022-08-02T00:13:28.134Z,23.05
2022-08-02T00:14:31.722Z,22.95
2022-08-02T00:15:37.986Z,22.92
2022-08-02T00:16:41.655Z,22.92
2022-08-02T00:17:52.227Z,22.93
2022-08-02T00:18:55.809Z,22.93
2022-08-02T00:20:02.283Z,23.00
2022-08-02T00:21:06.563Z,23.15
2022-08-02T00:22:13.986Z,23.09
2022-08-02T00:23:18.284Z,23.05
2022-08-02T00:24:30.857Z,23.09
2022-08-02T00:25:36.183Z,23.13
2022-08-02T00:26:40.981Z,23.14
2022-08-02T00:27:44.702Z,23.25
2022-08-02T00:28:47.661Z,23.11
2022-08-02T00:29:53.947Z,23.17
2022-08-02T00:31:02.265Z,23.18
2022-08-02T00:32:06.114Z,23.13
2022-08-02T00:33:08.798Z,23.24
2022-08-02T00:34:29.207Z,23.27
2022-08-02T00:35:17.483Z,23.27
2022-08-02T00:36:22.357Z,23.20
2022-08-02T00:37:26.665Z,23.15
2022-08-02T00:38:33.966Z,23.21
2022-08-02T00:39:37.739Z,23.25
2022-08-02T00:40:47.598Z,23.26
2022-08-02T00:41:53.865Z,23.25
2022-08-02T00:43:09.799Z,23.18
2022-08-02T00:44:12.886Z,23.25
2022-08-02T00:45:17.940Z,23.28
2022-08-02T00:46:25.071Z,23.14
2022-08-02T00:47:28.602Z,23.20
2022-08-02T00:48:32.339Z,23.21
2022-08-02T00:49:37.802Z,23.24
2022-08-02T00:50:45.876Z,23.35
2022-08-02T00:51:50.373Z,23.37
2022-08-02T00:52:55.248Z,23.43
2022-08-02T00:53:59.832Z,23.44
2022-08-02T00:55:02.763Z,23.31
2022-08-02T00:56:07.214Z,23.33
2022-08-02T00:57:12.133Z,23.29
2022-08-02T00:58:18.296Z,23.34
2022-08-02T00:59:25.285Z,23.30
2022-08-02T01:00:29.993Z,23.29
2022-08-02T01:01:56.235Z,23.33
2022-08-02T01:02:49.097Z,23.34
2022-08-02T01:03:53.223Z,23.37
2022-08-02T01:04:56.973Z,23.34
2022-08-02T01:06:16.679Z,23.37
2022-08-02T01:07:12.887Z,23.42
2022-08-02T01:08:14.175Z,23.38
2022-08-02T01:09:19.707Z,23.36
2022-08-02T01:10:24.987Z,23.25
2022-08-02T01:11:37.905Z,23.26
2022-08-02T01:12:43.873Z,23.30
2022-08-02T01:13:50.350Z,23.28
2022-08-02T01:14:58.300Z,23.27
2022-08-02T01:16:04.598Z,23.32
2022-08-02T01:17:22.601Z,23.24
2022-08-02T01:18:38.647Z,23.29
2022-08-02T01:20:10.658Z,23.22
2022-08-02T01:21:24.321Z,23.14
2022-08-02T01:24:07.949Z,23.40
2022-08-02T01:25:16.600Z,23.19
2022-08-02T01:26:34.746Z,23.20
2022-08-02T01:27:44.871Z,23.11
2022-08-02T01:29:16.668Z,23.11
2022-08-02T01:30:23.310Z,23.09
2022-08-02T01:31:54.838Z,23.04
2022-08-02T01:33:01.831Z,23.09
2022-08-02T01:35:27.802Z,23.21
2022-08-02T01:36:38.504Z,23.18
2022-08-02T01:38:00.826Z,23.06
2022-08-02T01:39:10.105Z,22.99
2022-08-02T01:41:35.704Z,23.17
2022-08-02T01:42:42.817Z,23.11
2022-08-02T01:43:53.550Z,23.17
2022-08-02T01:45:00.503Z,23.19
2022-08-02T01:46:07.716Z,23.11
2022-08-02T01:47:20.643Z,23.10
2022-08-02T01:48:26.527Z,23.14
2022-08-02T01:50:44.663Z,23.12
2022-08-02T01:52:09.838Z,23.09
2022-08-02T01:53:16.170Z,23.05
2022-08-02T01:54:22.485Z,22.94
2022-08-02T01:55:57.125Z,22.98
2022-08-02T01:56:38.999Z,23.06
2022-08-02T01:57:51.159Z,23.06
2022-08-02T02:00:13.570Z,23.19
2022-08-02T02:01:19.711Z,23.13
2022-08-02T02:02:23.796Z,23.10
2022-08-02T02:03:28.867Z,23.14
2022-08-02T02:04:33.674Z,23.11
2022-08-02T02:05:38.215Z,23.07
2022-08-02T02:06:45.420Z,23.07
2022-08-02T02:07:54.925Z,23.09
2022-08-02T02:09:01.901Z,23.10
2022-08-02T02:10:10.556Z,23.02
2022-08-02T02:12:09.350Z,23.07
2022-08-02T02:12:21.757Z,23.17
2022-08-02T02:13:33.560Z,23.09
2022-08-02T02:14:38.415Z,23.19
2022-08-02T02:15:48.677Z,23.27
2022-08-02T02:16:55.432Z,23.18
2022-08-02T02:18:12.476Z,23.01
2022-08-02T02:19:09.043Z,23.06
2022-08-02T02:20:16.736Z,23.12
2022-08-02T02:21:23.398Z,23.07
2022-08-02T02:22:27.568Z,23.15
2022-08-02T02:23:35.501Z,23.06
2022-08-02T02:24:39.234Z,23.12
2022-08-02T02:25:46.581Z,23.21
2022-08-02T02:26:54.593Z,23.26
2022-08-02T02:28:05.696Z,23.14
2022-08-02T02:30:18.851Z,23.04
2022-08-02T02:31:24.879Z,22.97
2022-08-02T02:32:30.474Z,22.95
2022-08-02T02:33:41.813Z,22.92
2022-08-02T02:34:48.832Z,22.77
2022-08-02T02:35:53.556Z,22.74
2022-08-02T02:37:01.213Z,22.72
2022-08-02T02:38:10.684Z,22.84
2022-08-02T02:39:16.117Z,22.89
2022-08-02T02:40:22.244Z,22.91
2022-08-02T02:41:29.275Z,22.97
2022-08-02T02:42:38.077Z,22.96
2022-08-02T02:43:44.443Z,22.97
2022-08-02T02:44:50.250Z,22.97
2022-08-02T02:45:53.853Z,23.00
2022-08-02T02:46:58.735Z,22.93
2022-08-02T02:48:04.728Z,22.95
2022-08-02T02:49:11.177Z,22.99
2022-08-02T02:50:17.916Z,22.96
2022-08-02T02:51:21.879Z,22.86
2022-08-02T02:52:27.660Z,22.86
2022-08-02T02:54:32.728Z,22.96
2022-08-02T02:54:39.460Z,22.99
2022-08-02T02:57:08.326Z,23.00
2022-08-02T02:58:12.408Z,22.99
2022-08-02T02:59:19.948Z,23.03
2022-08-02T03:00:45.283Z,23.05
2022-08-02T03:01:58.041Z,23.12
2022-08-02T03:03:03.616Z,23.03
2022-08-02T03:04:10.045Z,23.10
2022-08-02T03:05:15.484Z,23.01
2022-08-02T03:06:22.182Z,22.98
2022-08-02T03:07:27.532Z,22.96
2022-08-02T03:08:31.483Z,23.06
2022-08-02T03:09:35.302Z,23.08
2022-08-02T03:11:42.385Z,22.99
2022-08-02T03:12:46.651Z,23.02
2022-08-02T03:13:54.601Z,23.12
2022-08-02T03:15:04.961Z,23.05
2022-08-02T03:16:08.920Z,23.01
2022-08-02T03:17:12.646Z,22.97
2022-08-02T03:18:39.802Z,22.96
2022-08-02T03:19:46.365Z,22.99
2022-08-02T03:20:51.456Z,23.01
2022-08-02T03:21:57.484Z,22.97
2022-08-02T03:22:59.774Z,23.04
2022-08-02T03:24:03.793Z,23.03
2022-08-02T03:25:14.666Z,22.94
2022-08-02T03:26:18.771Z,22.90
2022-08-02T03:27:22.456Z,22.85
2022-08-02T03:28:26.584Z,22.85
2022-08-02T03:29:34.466Z,22.84
2022-08-02T03:30:37.147Z,22.94
2022-08-02T03:31:51.364Z,22.97
2022-08-02T03:32:55.172Z,23.00
2022-08-02T03:34:00.824Z,22.78
2022-08-02T03:35:10.052Z,22.89
2022-08-02T03:36:19.015Z,22.70
2022-08-02T03:37:24.705Z,22.80
2022-08-02T03:38:33.152Z,22.88
2022-08-02T03:39:37.295Z,22.98
2022-08-02T03:40:44.558Z,23.04
2022-08-02T03:41:52.410Z,23.00
2022-08-02T03:42:59.444Z,22.99
2022-08-02T03:44:06.427Z,22.86
2022-08-02T03:45:12.903Z,22.77
2022-08-02T03:46:20.356Z,22.74
2022-08-02T03:47:25.184Z,22.77
2022-08-02T03:48:33.830Z,22.79
2022-08-02T03:49:45.723Z,22.79
2022-08-02T03:50:53.001Z,22.89
2022-08-02T03:51:57.623Z,22.87
2022-08-02T03:53:02.783Z,22.85
2022-08-02T03:54:07.898Z,22.86
2022-08-02T03:55:13.745Z,22.85
2022-08-02T03:56:19.756Z,22.89
2022-08-02T03:57:23.436Z,22.79
2022-08-02T03:58:27.250Z,22.83
2022-08-02T03:59:35.023Z,22.70
2022-08-02T04:00:40.252Z,22.79
2022-08-02T04:01:48.298Z,22.73
2022-08-02T04:02:52.588Z,22.54
2022-08-02T04:03:58.694Z,22.54
2022-08-02T04:05:01.305Z,22.55
2022-08-02T04:06:05.198Z,22.47
2022-08-02T04:07:10.500Z,22.55
2022-08-02T04:08:36.000Z,22.53
2022-08-02T04:09:19.882Z,22.55
2022-08-02T04:10:24.997Z,22.61
2022-08-02T04:11:34.088Z,22.60
2022-08-02T04:12:37.572Z,22.46
2022-08-02T04:13:40.851Z,22.52
2022-08-02T04:14:47.004Z,22.48
2022-08-02T04:15:53.219Z,22.55
2022-08-02T04:17:05.466Z,22.50
2022-08-02T04:18:09.690Z,22.44
2022-08-02T04:19:18.681Z,22.42
2022-08-02T04:20:26.317Z,22.32
2022-08-02T04:21:51.585Z,22.34
2022-08-02T04:22:55.106Z,22.35
2022-08-02T04:24:00.179Z,22.22
2022-08-02T04:25:07.203Z,22.40
2022-08-02T04:26:15.188Z,22.30
2022-08-02T04:27:50.404Z,22.35
2022-08-02T04:28:30.240Z,22.27
2022-08-02T04:29:38.923Z,22.14
2022-08-02T04:30:44.630Z,22.18
2022-08-02T04:56:52.477Z,22.11
2022-08-02T04:57:58.334Z,22.12
2022-08-02T04:59:04.029Z,22.22
2022-08-02T05:00:09.586Z,22.13
2022-08-02T05:01:14.343Z,22.18
2022-08-02T05:02:18.080Z,22.18
2022-08-02T05:03:20.837Z,22.25
2022-08-02T05:04:27.186Z,22.33
2022-08-02T05:05:33.371Z,22.41
2022-08-02T05:06:37.495Z,22.42
2022-08-02T05:07:41.321Z,22.26
2022-08-02T05:08:46.025Z,22.12
2022-08-02T05:09:51.667Z,22.18
2022-08-02T05:10:55.381Z,22.14
2022-08-02T05:11:58.886Z,22.17
2022-08-02T05:13:05.213Z,22.25
2022-08-02T05:14:08.765Z,22.31
2022-08-02T05:15:13.114Z,22.32
2022-08-02T05:16:18.271Z,22.32
2022-08-02T05:17:22.923Z,22.42
2022-08-02T05:18:29.530Z,22.33
2022-08-02T05:19:33.239Z,22.35
2022-08-02T05:20:37.219Z,22.39
2022-08-02T05:21:41.354Z,22.42
2022-08-02T05:22:44.768Z,22.40
2022-08-02T05:23:55.337Z,22.41
2022-08-02T05:24:58.805Z,22.43
2022-08-02T05:26:03.252Z,22.42
2022-08-02T05:27:16.916Z,22.36
2022-08-02T05:28:12.769Z,22.34
2022-08-02T05:29:16.481Z,22.12
2022-08-02T05:30:21.208Z,22.24
2022-08-02T05:31:24.703Z,22.28
2022-08-02T05:32:30.118Z,22.29
2022-08-02T05:33:35.568Z,22.24
2022-08-02T05:34:39.578Z,22.33
2022-08-02T05:35:43.855Z,22.33
2022-08-02T05:36:49.118Z,22.29
2022-08-02T05:37:53.086Z,22.13
2022-08-02T05:38:59.635Z,22.18
2022-08-02T05:40:12.993Z,22.23
2022-08-02T05:41:17.257Z,22.41
2022-08-02T05:43:34.695Z,22.42
2022-08-02T05:44:40.705Z,22.35
2022-08-02T05:45:44.463Z,22.47
2022-08-02T05:46:48.212Z,22.47
2022-08-02T05:47:51.367Z,22.47
2022-08-02T05:48:54.230Z,22.39
2022-08-02T05:49:57.953Z,22.34
2022-08-02T05:52:22.540Z,22.33
2022-08-02T05:53:48.964Z,22.23
2022-08-02T05:55:10.236Z,22.19
2022-08-02T05:56:27.275Z,22.18
2022-08-02T05:58:08.554Z,22.16
2022-08-02T05:59:40.888Z,22.29
2022-08-02T06:03:40.112Z,22.30
2022-08-02T06:04:56.049Z,22.22
2022-08-02T06:06:08.916Z,22.36
2022-08-02T06:07:15.453Z,22.28
2022-08-02T06:08:21.835Z,22.22
2022-08-02T06:09:33.671Z,22.21
2022-08-02T06:10:40.694Z,22.28
2022-08-02T06:12:10.912Z,22.13
2022-08-02T06:13:09.917Z,22.25
2022-08-02T06:14:16.526Z,22.30
2022-08-02T06:15:23.744Z,22.32
2022-08-02T06:16:32.120Z,22.22
2022-08-02T06:17:41.857Z,22.41
2022-08-02T06:18:44.115Z,22.34
2022-08-02T06:19:51.551Z,22.16
2022-08-02T06:20:56.196Z,22.40
2022-08-02T06:22:31.972Z,22.44
2022-08-02T06:23:13.691Z,22.55
2022-08-02T06:24:26.364Z,22.57
2022-08-02T06:25:50.975Z,22.50
2022-08-02T06:26:40.234Z,22.52
2022-08-02T06:27:46.207Z,22.42
2022-08-02T06:28:52.823Z,22.54
2022-08-02T06:30:00.532Z,22.65
2022-08-02T06:31:07.729Z,22.56
2022-08-02T06:32:13.153Z,22.38
2022-08-02T06:33:19.494Z,22.25
2022-08-02T06:34:23.388Z,22.39
2022-08-02T06:35:30.659Z,22.40
2022-08-02T06:36:43.248Z,22.40
2022-08-02T06:39:19.330Z,22.31
2022-08-02T06:40:29.413Z,22.16
2022-08-02T06:41:41.398Z,22.27
2022-08-02T06:42:54.501Z,22.32
2022-08-02T06:44:27.374Z,22.42
2022-08-02T06:45:11.877Z,22.56
2022-08-02T06:46:57.107Z,22.58
2022-08-02T06:47:27.209Z,22.57
2022-08-02T06:48:31.549Z,22.70
2022-08-02T06:49:51.574Z,22.74
2022-08-02T06:50:43.153Z,22.71
2022-08-02T06:51:46.940Z,22.78
2022-08-02T06:52:50.661Z,22.91
2022-08-02T06:53:54.449Z,22.75
2022-08-02T06:55:03.063Z,22.80
2022-08-02T06:56:07.162Z,22.77
2022-08-02T06:57:12.266Z,22.82
2022-08-02T06:58:16.606Z,22.69
2022-08-02T06:59:23.547Z,22.57
2022-08-02T07:01:43.806Z,22.57
2022-08-02T07:02:49.713Z,22.35
2022-08-02T07:03:57.305Z,22.31
2022-08-02T07:05:00.348Z,22.29
2022-08-02T07:06:05.092Z,22.44
2022-08-02T07:07:08.548Z,22.39
2022-08-02T07:08:13.156Z,22.36
2022-08-02T07:09:20.914Z,22.46
2022-08-02T07:10:26.331Z,22.59
2022-08-02T07:11:31.596Z,22.66
2022-08-02T07:12:39.235Z,22.76
2022-08-02T07:15:01.752Z,22.99
2022-08-02T07:16:06.327Z,22.92
2022-08-02T07:17:13.302Z,22.88
2022-08-02T07:18:20.617Z,22.86
2022-08-02T07:19:30.060Z,22.96
2022-08-02T07:20:30.383Z,23.01
2022-08-02T07:21:56.328Z,22.92
2022-08-02T07:22:40.211Z,22.77
2022-08-02T07:23:44.515Z,22.73
2022-08-02T07:24:48.408Z,22.82
2022-08-02T07:26:05.348Z,22.78
2022-08-02T07:27:11.526Z,22.78
2022-08-02T07:28:23.743Z,22.69
2022-08-02T07:29:21.960Z,22.75
2022-08-02T07:30:26.560Z,22.63
2022-08-02T07:31:31.169Z,22.60
2022-08-02T07:32:34.941Z,22.29
2022-08-02T07:33:40.874Z,21.98
2022-08-02T07:34:50.572Z,22.07
2022-08-02T07:35:54.629Z,22.09
2022-08-02T07:36:57.781Z,22.01
2022-08-02T07:38:03.196Z,22.01
2022-08-02T07:39:07.158Z,22.12
2022-08-02T07:40:24.789Z,22.04
2022-08-02T07:41:51.631Z,22.05
2022-08-02T07:43:03.819Z,22.07
2022-08-02T07:44:28.971Z,22.10
2022-08-02T07:45:36.132Z,22.12
2022-08-02T07:46:43.431Z,21.99
2022-08-02T07:47:47.015Z,22.17
2022-08-02T07:48:53.759Z,22.22
2022-08-02T07:49:56.576Z,22.21
2022-08-02T07:51:01.391Z,22.34
2022-08-02T07:52:05.508Z,22.32
2022-08-02T07:53:10.434Z,22.33
2022-08-02T07:54:16.897Z,22.37
2022-08-02T07:55:24.157Z,22.32
2022-08-02T07:56:30.450Z,22.35
2022-08-02T07:57:35.176Z,22.38
2022-08-02T07:58:39.236Z,22.50
2022-08-02T07:59:46.623Z,22.58
2022-08-02T08:00:51.842Z,22.57
2022-08-02T08:01:57.463Z,22.67
2022-08-02T08:03:03.621Z,22.63
2022-08-02T08:04:07.773Z,22.57
2022-08-02T08:05:10.603Z,22.55
2022-08-02T08:06:15.507Z,22.44
2022-08-02T08:07:21.016Z,22.45
2022-08-02T08:08:24.641Z,22.56
2022-08-02T08:09:28.283Z,22.67
2022-08-02T08:10:32.021Z,22.76
2022-08-02T08:11:37.341Z,22.58
2022-08-02T08:12:41.935Z,22.42
2022-08-02T08:13:46.934Z,22.38
2022-08-02T08:14:50.587Z,22.57
2022-08-02T08:15:54.125Z,22.83
2022-08-02T08:16:59.403Z,23.08
2022-08-02T08:18:05.860Z,22.99
2022-08-02T08:19:08.650Z,22.98
2022-08-02T08:20:15.874Z,22.95
2022-08-02T08:21:19.063Z,23.08
2022-08-02T08:22:24.292Z,22.97
2022-08-02T08:23:28.808Z,22.98
2022-08-02T08:24:35.959Z,23.05
2022-08-02T08:25:42.188Z,23.06
2022-08-02T08:26:46.087Z,23.13
2022-08-02T08:27:51.473Z,23.10
2022-08-02T08:28:56.232Z,23.09
2022-08-02T08:30:00.650Z,23.10
2022-08-02T08:31:08.571Z,22.95
2022-08-02T08:32:17.250Z,22.83
2022-08-02T08:33:21.426Z,22.94
2022-08-02T08:34:28.853Z,23.04
2022-08-02T08:35:31.671Z,23.06
2022-08-02T08:36:35.562Z,22.95
2022-08-02T08:37:42.976Z,22.95
2022-08-02T08:38:45.695Z,23.02
2022-08-02T08:39:58.192Z,22.96
2022-08-02T08:41:00.438Z,23.02
2022-08-02T08:42:10.057Z,23.01
2022-08-02T08:43:15.599Z,22.89
2022-08-02T08:44:18.725Z,23.03
2022-08-02T08:45:22.128Z,23.09
2022-08-02T08:46:30.686Z,23.07
2022-08-02T08:47:38.318Z,23.09
2022-08-02T08:48:48.803Z,23.15
2022-08-02T08:49:57.325Z,23.15
2022-08-02T08:51:20.023Z,23.25
2022-08-02T08:52:27.478Z,23.17
2022-08-02T08:53:36.505Z,22.85
2022-08-02T08:54:44.098Z,23.03
2022-08-02T08:55:54.532Z,22.94
2022-08-02T08:56:59.444Z,22.86
2022-08-02T08:58:05.072Z,22.71
2022-08-02T08:59:10.129Z,22.45
2022-08-02T09:00:15.648Z,22.37
2022-08-02T09:01:19.417Z,22.46
2022-08-02T09:03:36.251Z,22.51
2022-08-02T09:04:39.241Z,22.44
2022-08-02T09:05:44.173Z,22.57
2022-08-02T09:06:48.094Z,22.68
2022-08-02T09:07:54.720Z,22.57
2022-08-02T09:08:58.449Z,22.56
2022-08-02T09:10:05.875Z,22.72
2022-08-02T09:12:31.315Z,22.66
2022-08-02T09:13:45.043Z,22.57
2022-08-02T09:14:41.616Z,22.55
2022-08-02T09:15:49.339Z,22.28
2022-08-02T09:16:55.154Z,22.25
2022-08-02T09:17:58.904Z,22.24
2022-08-02T09:19:20.856Z,22.50
2022-08-02T09:20:30.843Z,22.44
2022-08-02T09:24:25.571Z,22.50
2022-08-02T09:25:32.213Z,22.16
2022-08-02T09:26:38.546Z,22.14
2022-08-02T09:27:43.308Z,22.27
2022-08-02T09:28:51.982Z,22.16
2022-08-02T09:30:12.599Z,22.10
2022-08-02T09:31:19.575Z,22.24
2022-08-02T09:32:24.012Z,22.09
2022-08-02T09:33:31.430Z,22.06
2022-08-02T09:34:55.533Z,21.95
2022-08-02T09:36:08.606Z,22.05
2022-08-02T09:37:31.214Z,22.15
2022-08-02T09:38:39.409Z,22.06
2022-08-02T09:39:47.594Z,21.81
2022-08-02T09:40:55.117Z,21.90
2022-08-02T09:42:03.716Z,21.98
2022-08-02T09:43:08.709Z,22.13
2022-08-02T09:44:16.253Z,22.22
2022-08-02T09:45:21.175Z,21.90
2022-08-02T09:46:38.023Z,21.56
2022-08-02T09:47:41.840Z,21.58
2022-08-02T09:48:54.022Z,21.64
2022-08-02T09:50:01.124Z,21.69
2022-08-02T09:51:04.811Z,21.81
2022-08-02T09:52:10.834Z,21.90
2022-08-02T09:53:14.648Z,21.92
2022-08-02T09:54:31.072Z,22.05
2022-08-02T09:55:35.466Z,22.04
2022-08-02T09:56:49.961Z,22.05
2022-08-02T09:59:10.259Z,22.02
2022-08-02T10:00:20.415Z,22.01
2022-08-02T10:01:37.321Z,21.88
2022-08-02T10:02:27.522Z,21.95
2022-08-02T10:03:37.247Z,22.09
2022-08-02T10:04:52.882Z,22.14
2022-08-02T10:06:03.127Z,22.14
2022-08-02T10:07:06.404Z,22.12
2022-08-02T10:08:11.767Z,22.03
2022-08-02T10:09:18.782Z,21.97
2022-08-02T10:10:25.387Z,21.97
2022-08-02T10:11:30.593Z,21.95
2022-08-02T10:12:34.862Z,21.87
2022-08-02T10:13:37.798Z,21.87
2022-08-02T10:14:43.723Z,21.81
2022-08-02T10:15:50.383Z,21.74
2022-08-02T10:16:54.556Z,21.67
2022-08-02T10:17:58.103Z,21.72
2022-08-02T10:19:02.655Z,21.70
2022-08-02T10:20:07.197Z,21.54
2022-08-02T10:22:30.953Z,21.87
2022-08-02T10:23:38.923Z,21.88
2022-08-02T10:24:48.007Z,21.90
2022-08-02T10:26:07.340Z,21.90
2022-08-02T10:27:21.864Z,21.94
2022-08-02T10:28:35.526Z,21.86
2022-08-02T10:29:55.351Z,21.96
2022-08-02T10:30:58.168Z,21.96
2022-08-02T10:32:10.884Z,21.97
2022-08-02T10:33:18.860Z,21.99
2022-08-02T10:34:27.233Z,21.99
2022-08-02T10:35:36.550Z,21.73
2022-08-02T10:36:42.495Z,21.52
2022-08-02T10:37:48.305Z,21.56
2022-08-02T10:38:59.217Z,21.56
2022-08-02T10:40:01.961Z,21.61
2022-08-02T10:41:05.738Z,21.62
2022-08-02T10:42:11.593Z,21.62
2022-08-02T10:43:43.541Z,21.65
2022-08-02T10:44:49.226Z,21.76
2022-08-02T10:45:53.643Z,21.60
2022-08-02T10:47:19.321Z,21.61
2022-08-02T10:48:22.194Z,21.75
2022-08-02T10:49:41.032Z,21.79
2022-08-02T10:50:54.520Z,21.73
2022-08-02T10:52:07.907Z,21.78
2022-08-02T10:53:37.911Z,21.80
2022-08-02T10:54:44.561Z,22.02
2022-08-02T10:55:48.211Z,21.96
2022-08-02T10:56:56.501Z,21.87
2022-08-02T10:58:26.383Z,21.73
2022-08-02T10:59:36.535Z,21.70
2022-08-02T11:00:40.427Z,21.78
2022-08-02T11:01:44.002Z,21.88
2022-08-02T11:02:53.476Z,21.65
2022-08-02T11:04:00.839Z,21.59
2022-08-02T11:05:09.184Z,21.72
2022-08-02T11:06:25.653Z,21.72
2022-08-02T11:07:36.156Z,21.79
2022-08-02T11:08:41.756Z,22.01
2022-08-02T11:09:53.385Z,21.82
2022-08-02T11:11:01.131Z,21.95
2022-08-02T11:12:08.133Z,22.06
2022-08-02T11:13:20.809Z,22.10
2022-08-02T11:14:24.439Z,21.91
2022-08-02T11:15:28.215Z,21.73
2022-08-02T11:17:00.286Z,21.74
2022-08-02T11:18:03.743Z,21.92
2022-08-02T11:19:07.102Z,21.93
2022-08-02T11:20:17.855Z,21.90
2022-08-02T11:21:28.684Z,21.80
2022-08-02T11:22:32.593Z,21.91
2022-08-02T11:23:45.004Z,21.71
2022-08-02T11:24:46.621Z,21.60
2022-08-02T11:26:03.716Z,21.69
2022-08-02T11:27:02.216Z,21.75
2022-08-02T11:28:13.832Z,21.78
2022-08-02T11:29:19.062Z,21.89
2022-08-02T11:30:27.333Z,22.00
2022-08-02T11:31:40.697Z,22.11
2022-08-02T11:32:44.561Z,22.00
2022-08-02T11:33:51.198Z,21.95
2022-08-02T11:34:54.344Z,22.02
2022-08-02T11:36:04.685Z,22.05
2022-08-02T11:37:08.714Z,21.89
2022-08-02T11:38:17.435Z,21.97
2022-08-02T11:39:24.622Z,21.83
2022-08-02T11:40:35.490Z,21.78
2022-08-02T11:41:47.332Z,22.07
2022-08-02T11:42:54.520Z,21.93
2022-08-02T11:43:57.526Z,21.72
2022-08-02T11:45:03.210Z,21.56
2022-08-02T11:46:15.709Z,21.65
2022-08-02T11:47:21.896Z,21.69
2022-08-02T11:48:37.702Z,21.72
2022-08-02T11:49:40.906Z,21.99
2022-08-02T11:50:47.625Z,21.92
2022-08-02T11:52:12.508Z,22.05
2022-08-02T11:53:20.679Z,22.09
2022-08-02T11:54:26.457Z,22.24
2022-08-02T11:55:33.086Z,22.23
2022-08-02T11:56:40.174Z,22.10
2022-08-02T11:58:01.542Z,21.91
2022-08-02T11:59:14.421Z,21.99
2022-08-02T12:00:30.763Z,21.93
2022-08-02T12:01:36.874Z,21.83
2022-08-02T12:02:39.722Z,21.91
2022-08-02T12:03:45.482Z,21.67
2022-08-02T12:04:58.331Z,21.91
2022-08-02T12:06:06.597Z,21.80
2022-08-02T12:07:08.289Z,21.92
2022-08-02T12:08:12.980Z,22.12
2022-08-02T12:09:18.221Z,22.20
2022-08-02T12:10:26.392Z,22.32
2022-08-02T12:11:39.169Z,22.42
2022-08-02T12:12:51.902Z,22.21
2022-08-02T12:13:57.542Z,22.24
2022-08-02T12:15:01.117Z,22.43
2022-08-02T12:16:10.592Z,22.59
2022-08-02T12:17:33.130Z,22.61
2022-08-02T12:19:03.663Z,22.67
2022-08-02T12:20:09.498Z,22.80
2022-08-02T12:21:27.526Z,22.83
2022-08-02T12:22:31.166Z,22.72
2022-08-02T12:23:37.981Z,22.77
2022-08-02T12:24:47.685Z,22.71
2022-08-02T12:26:09.533Z,22.72
2022-08-02T12:27:35.028Z,22.68
2022-08-02T12:28:40.952Z,22.44
2022-08-02T12:29:57.628Z,22.64
2022-08-02T12:31:01.353Z,22.82
2022-08-02T12:32:05.566Z,22.89
2022-08-02T12:33:13.002Z,22.87
2022-08-02T12:34:21.290Z,22.76
2022-08-02T12:35:33.217Z,22.76
2022-08-02T12:36:38.618Z,22.54
2022-08-02T12:37:46.690Z,22.57
2022-08-02T12:38:59.712Z,22.39
2022-08-02T12:40:24.998Z,22.45
2022-08-02T12:41:32.795Z,22.51
2022-08-02T12:42:57.542Z,22.38
2022-08-02T12:44:02.407Z,22.34
2022-08-02T12:45:07.021Z,22.23
2022-08-02T12:46:19.822Z,22.03
2022-08-02T12:47:23.356Z,21.89
2022-08-02T12:48:40.440Z,22.10
2022-08-02T12:49:45.889Z,22.15
2022-08-02T12:50:50.037Z,22.20
2022-08-02T12:51:57.588Z,21.97
2022-08-02T12:53:12.405Z,21.83
2022-08-02T12:54:31.625Z,21.99
2022-08-02T12:56:00.753Z,22.12
2022-08-02T12:56:40.708Z,21.94
2022-08-02T12:58:05.270Z,22.09
2022-08-02T12:59:10.871Z,22.12
2022-08-02T13:00:21.963Z,21.97
2022-08-02T13:01:28.074Z,22.02
2022-08-02T13:02:34.284Z,22.08
2022-08-02T13:04:11.063Z,22.16
2022-08-02T13:04:50.302Z,22.34
2022-08-02T13:05:57.662Z,22.42
2022-08-02T13:07:00.202Z,22.36
2022-08-02T13:08:06.233Z,22.33
2022-08-02T13:09:16.963Z,22.32
2022-08-02T13:10:25.309Z,22.26
2022-08-02T13:11:28.723Z,22.39
2022-08-02T13:12:32.403Z,22.60
2022-08-02T13:13:36.140Z,22.65
2022-08-02T13:14:40.041Z,22.65
2022-08-02T13:17:02.964Z,22.58
2022-08-02T13:18:05.399Z,22.53
2022-08-02T13:19:09.158Z,22.45
2022-08-02T13:20:16.121Z,22.31
2022-08-02T13:21:41.730Z,22.32
2022-08-02T13:22:28.770Z,22.44
2022-08-02T13:23:54.798Z,22.45
2022-08-02T13:24:55.601Z,22.49
2022-08-02T13:25:47.718Z,22.21
2022-08-02T13:26:54.662Z,22.18
2022-08-02T13:27:58.345Z,22.15
2022-08-02T13:29:07.503Z,22.33
2022-08-02T13:30:11.970Z,22.32
2022-08-02T13:31:35.601Z,22.26
2022-08-02T13:32:29.841Z,22.13
2022-08-02T13:33:33.449Z,22.07
2022-08-02T13:34:44.055Z,22.07
2022-08-02T13:35:49.761Z,22.08
2022-08-02T13:36:52.676Z,21.77
2022-08-02T13:37:57.043Z,21.71
2022-08-02T13:39:00.697Z,21.75
2022-08-02T13:40:25.936Z,21.69
2022-08-02T13:41:15.118Z,21.78
2022-08-02T13:42:18.693Z,21.59
2022-08-02T13:43:22.143Z,21.63
2022-08-02T13:44:24.985Z,21.79
2022-08-02T13:45:28.520Z,21.88
2022-08-02T13:46:33.742Z,21.78
2022-08-02T13:48:03.572Z,21.78
2022-08-02T13:48:52.469Z,21.61
2022-08-02T13:49:57.274Z,21.58
2022-08-02T13:51:06.279Z,21.68
2022-08-02T13:52:10.575Z,21.71
2022-08-02T13:53:14.174Z,21.86
2022-08-02T13:54:18.546Z,21.84
2022-08-02T13:55:22.150Z,21.80
2022-08-02T13:56:35.238Z,21.72
2022-08-02T13:57:31.105Z,21.80
2022-08-02T13:58:35.561Z,21.63
2022-08-02T13:59:56.938Z,21.56
2022-08-02T14:01:59.699Z,21.56
2022-08-02T14:03:06.240Z,21.56
2022-08-02T14:04:09.730Z,21.69
2022-08-02T14:05:17.325Z,21.56
2022-08-02T14:06:23.214Z,21.57
2022-08-02T14:07:26.616Z,21.53
2022-08-02T14:08:30.259Z,21.45
2022-08-02T14:09:34.731Z,21.38
2022-08-02T14:10:46.040Z,21.41
2022-08-02T14:11:50.804Z,21.30
2022-08-02T14:12:56.537Z,21.36
2022-08-02T14:14:04.099Z,21.33
2022-08-02T14:15:11.289Z,21.27
2022-08-02T14:16:15.650Z,21.36
2022-08-02T14:17:19.610Z,21.31
2022-08-02T14:18:23.448Z,21.28
2022-08-02T14:19:26.512Z,21.24
2022-08-02T14:20:32.001Z,21.10
2022-08-02T14:21:47.222Z,21.19
2022-08-02T14:22:42.039Z,20.90
2022-08-02T14:23:49.625Z,20.86
2022-08-02T14:24:50.993Z,20.93
2022-08-02T14:25:56.206Z,20.92
2022-08-02T14:27:06.697Z,20.88
2022-08-02T14:28:10.506Z,21.10
2022-08-02T14:29:15.366Z,21.02
2022-08-02T14:30:19.205Z,21.25
2022-08-02T14:31:26.336Z,21.32
2022-08-02T14:32:32.753Z,21.43
2022-08-02T14:33:36.371Z,21.39
2022-08-02T14:34:42.835Z,21.30
2022-08-02T14:35:46.413Z,21.11
2022-08-02T14:36:53.529Z,21.24
2022-08-02T14:37:56.015Z,21.21
2022-08-02T14:39:04.086Z,21.34
2022-08-02T14:40:31.516Z,21.37
2022-08-02T14:41:17.868Z,21.34
2022-08-02T14:42:22.587Z,21.30
2022-08-02T14:43:45.069Z,21.32
2022-08-02T14:44:50.152Z,21.32
2022-08-02T14:45:56.451Z,21.37
2022-08-02T14:46:59.744Z,21.37
2022-08-02T14:48:03.503Z,21.21
2022-08-02T14:49:09.975Z,21.21
2022-08-02T14:50:15.938Z,21.16
2022-08-02T14:51:19.772Z,21.03
2022-08-02T14:52:22.193Z,20.80
2022-08-02T14:53:25.108Z,20.88
2022-08-02T14:54:32.360Z,20.98
2022-08-02T14:55:35.923Z,20.90
2022-08-02T14:56:39.154Z,20.88
2022-08-02T14:57:42.785Z,20.82
2022-08-02T14:58:46.538Z,20.81
2022-08-02T14:59:53.376Z,20.93
2022-08-02T15:00:56.195Z,20.83
2022-08-02T15:02:03.423Z,20.78
2022-08-02T15:03:07.202Z,20.71
2022-08-02T15:04:13.122Z,20.75
2022-08-02T15:05:17.135Z,20.70
2022-08-02T15:31:33.011Z,20.88
2022-08-02T15:32:35.452Z,20.93
2022-08-02T15:33:38.921Z,20.92
2022-08-02T15:34:41.490Z,20.91
2022-08-02T15:35:51.920Z,20.85
2022-08-02T15:38:08.925Z,20.98
2022-08-02T15:39:13.110Z,20.78
2022-08-02T15:40:16.483Z,20.77
2022-08-02T15:41:20.168Z,20.76
2022-08-02T15:42:30.425Z,20.87
2022-08-02T15:43:29.718Z,20.82
2022-08-02T15:44:40.557Z,20.66
2022-08-02T15:45:45.885Z,20.50
2022-08-02T15:46:50.857Z,20.58
2022-08-02T15:47:55.642Z,20.54
2022-08-02T15:48:59.746Z,20.59